Time;durP1;ratioP1;P1;durP2;ratioP2;P2;SDS_P1;SDS_P2;PMS_P1;PMS_P2;Temp;Humidity;BMP_temperature;BMP_pressure;BME280_temperature;BME280_humidity;BME280_pressure;Samples;Min_cycle;Max_cycle;Signal;HPM_P1;HPM_P2
2023/06/20 00:00:52;;;;;;;16.92;12.05;;;18.90;99.90;;;;;;5016091;28;20038;-59
2023/06/20 00:03:18;;;;;;;20.02;12.57;;;18.90;99.90;;;;;;5011126;28;20227;-58
2023/06/20 00:05:44;;;;;;;17.58;13.40;;;18.90;99.90;;;;;;5009592;28;20351;-59
2023/06/20 00:08:10;;;;;;;18.55;12.90;;;18.90;99.90;;;;;;5012175;28;20042;-58
2023/06/20 00:10:36;;;;;;;20.45;13.30;;;18.90;99.90;;;;;;5010564;28;20042;-59
2023/06/20 00:13:02;;;;;;;18.00;13.27;;;18.80;99.90;;;;;;5013395;28;20390;-59
2023/06/20 00:15:28;;;;;;;20.45;14.18;;;18.80;99.90;;;;;;5017838;28;20049;-57
2023/06/20 00:18:00;;;;;;;22.85;13.38;;;18.80;99.90;;;;;;5014408;28;20033;-58
2023/06/20 00:20:27;;;;;;;18.08;13.35;;;18.80;99.90;;;;;;5015817;28;20044;-56
2023/06/20 00:22:54;;;;;;;20.48;14.38;;;18.80;99.90;;;;;;5016955;28;20470;-56
2023/06/20 00:25:20;;;;;;;19.52;13.25;;;18.80;99.90;;;;;;5013116;28;20096;-58
2023/06/20 00:27:45;;;;;;;20.70;12.23;;;18.70;99.90;;;;;;5018460;28;20057;-59
2023/06/20 00:30:12;;;;;;;20.00;13.05;;;18.70;99.90;;;;;;5016130;28;20042;-59
2023/06/20 00:32:38;;;;;;;20.85;13.38;;;18.70;99.90;;;;;;5012872;28;20046;-59
2023/06/20 00:35:04;;;;;;;16.05;11.48;;;18.70;99.90;;;;;;5014472;28;20103;-58
2023/06/20 00:37:29;;;;;;;19.77;13.38;;;18.70;99.90;;;;;;4998985;28;20052;-58
2023/06/20 00:39:55;;;;;;;18.98;13.35;;;18.70;99.90;;;;;;4997862;28;20046;-56
2023/06/20 00:42:25;;;;;;;18.08;13.13;;;18.60;99.90;;;;;;5014094;28;20041;-57
2023/06/20 00:44:51;;;;;;;18.92;11.90;;;18.60;99.90;;;;;;5011679;28;20042;-57
2023/06/20 00:47:18;;;;;;;18.13;12.73;;;18.60;99.90;;;;;;5013995;28;20037;-58
2023/06/20 00:49:48;;;;;;;21.02;13.32;;;18.60;99.90;;;;;;5014370;28;20465;-57
2023/06/20 00:52:16;;;;;;;18.67;13.40;;;18.60;99.90;;;;;;5014081;28;20033;-56
2023/06/20 00:54:47;;;;;;;21.75;14.23;;;18.60;99.90;;;;;;5016827;28;20460;-56
2023/06/20 00:57:18;;;;;;;20.58;13.75;;;18.50;99.90;;;;;;5015827;28;20044;-56
2023/06/20 00:59:45;;;;;;;21.27;14.25;;;18.50;99.90;;;;;;5017461;28;20049;-58
2023/06/20 01:02:14;;;;;;;17.92;13.13;;;18.50;99.90;;;;;;5011952;28;20454;-57
2023/06/20 01:04:41;;;;;;;16.10;12.38;;;18.50;99.90;;;;;;5013814;28;20596;-59
2023/06/20 01:07:15;;;;;;;17.95;12.07;;;18.50;99.90;;;;;;4999733;28;20041;-57
2023/06/20 01:10:04;;;;;;;18.25;12.85;;;18.50;99.90;;;;;;5011632;28;20037;-57
2023/06/20 01:12:41;;;;;;;17.75;12.70;;;18.50;99.90;;;;;;5011442;28;20050;-57
2023/06/20 01:15:40;;;;;;;16.85;12.55;;;18.50;99.90;;;;;;5016186;28;20042;-59
2023/06/20 01:18:25;;;;;;;16.83;12.43;;;18.50;99.90;;;;;;5016187;28;20091;-59
2023/06/20 01:20:56;;;;;;;14.23;10.63;;;18.40;99.90;;;;;;5019061;28;20052;-53
2023/06/20 01:23:36;;;;;;;15.75;10.20;;;18.40;99.90;;;;;;5016300;28;20042;-56
2023/06/20 01:26:35;;;;;;;14.75;10.57;;;18.40;99.90;;;;;;5018115;28;20038;-56
2023/06/20 01:29:10;;;;;;;13.63;9.77;;;18.40;99.90;;;;;;5000716;28;20054;-57
2023/06/20 01:31:40;;;;;;;14.10;8.95;;;18.30;99.90;;;;;;5000003;28;20491;-58
2023/06/20 01:34:11;;;;;;;13.25;8.98;;;18.30;99.90;;;;;;5003803;28;20122;-59
2023/06/20 01:36:40;;;;;;;13.03;8.23;;;18.30;99.90;;;;;;5001017;28;20042;-59
2023/06/20 01:39:10;;;;;;;10.63;8.75;;;18.30;99.90;;;;;;5015130;28;20359;-58
2023/06/20 01:41:38;;;;;;;11.93;8.70;;;18.30;99.90;;;;;;5014777;28;20045;-59
2023/06/20 01:44:07;;;;;;;13.25;8.18;;;18.20;99.90;;;;;;5016871;28;20535;-59
2023/06/20 01:46:34;;;;;;;12.27;8.52;;;18.20;99.90;;;;;;5018223;28;20571;-55
2023/06/20 01:49:01;;;;;;;11.25;8.07;;;18.20;99.90;;;;;;5004207;28;20076;-58
2023/06/20 01:51:29;;;;;;;12.02;8.25;;;18.10;99.90;;;;;;5016172;28;20160;-59
2023/06/20 01:53:57;;;;;;;12.10;8.30;;;18.10;99.90;;;;;;5015108;28;20041;-59
2023/06/20 01:56:27;;;;;;;15.95;9.35;;;18.10;99.90;;;;;;5016757;28;20497;-59
2023/06/20 01:58:54;;;;;;;13.43;9.07;;;18.10;99.90;;;;;;5018000;28;20575;-59
2023/06/20 02:01:22;;;;;;;12.10;8.23;;;18.10;99.90;;;;;;5015969;28;20136;-58
2023/06/20 02:03:49;;;;;;;13.70;9.30;;;18.10;99.90;;;;;;5017272;28;20037;-59
2023/06/20 02:06:17;;;;;;;13.23;8.65;;;18.10;99.90;;;;;;5016181;28;20449;-58
2023/06/20 02:08:43;;;;;;;13.25;7.45;;;18.10;99.90;;;;;;5013996;28;20052;-59
2023/06/20 02:11:09;;;;;;;10.02;7.72;;;18.10;99.90;;;;;;5018218;28;20049;-59
2023/06/20 02:13:36;;;;;;;13.48;7.32;;;18.10;99.90;;;;;;5019911;28;20045;-57
2023/06/20 02:16:06;;;;;;;9.95;6.95;;;18.10;99.90;;;;;;5020850;28;20521;-58
2023/06/20 02:18:32;;;;;;;12.07;7.53;;;18.10;99.90;;;;;;5018153;28;21245;-59
2023/06/20 02:21:04;;;;;;;10.25;7.22;;;18.00;99.90;;;;;;5021048;28;20040;-58
2023/06/20 02:23:32;;;;;;;9.15;6.55;;;18.00;99.90;;;;;;5015533;28;20034;-58
2023/06/20 02:26:09;;;;;;;11.25;6.78;;;18.00;99.90;;;;;;5003451;28;20045;-55
2023/06/20 02:28:45;;;;;;;9.98;7.32;;;18.00;99.90;;;;;;5020486;28;20041;-58
2023/06/20 02:31:17;;;;;;;9.98;6.93;;;18.00;99.90;;;;;;5022317;28;20053;-58
2023/06/20 02:33:45;;;;;;;12.75;7.13;;;18.00;99.90;;;;;;5019668;28;20046;-59
2023/06/20 02:36:13;;;;;;;8.88;6.97;;;18.00;99.90;;;;;;5019959;28;20049;-58
2023/06/20 02:38:39;;;;;;;10.48;7.38;;;18.00;99.90;;;;;;5016897;28;20506;-59
2023/06/20 02:41:05;;;;;;;13.70;7.40;;;18.00;99.90;;;;;;5016893;28;20049;-59
2023/06/20 02:43:31;;;;;;;11.32;7.57;;;18.00;99.90;;;;;;5006702;28;20077;-58
2023/06/20 02:46:50;;;;;;;12.93;8.48;;;18.00;99.90;;;;;;5014798;28;20121;-59
2023/06/20 02:49:43;;;;;;;16.83;8.48;;;18.00;99.90;;;;;;4953945;28;20151;-59
2023/06/20 02:52:35;;;;;;;12.63;8.50;;;18.10;99.90;;;;;;4997241;28;20123;-57
2023/06/20 02:55:07;;;;;;;16.77;8.70;;;18.10;99.90;;;;;;5015740;28;20433;-58
2023/06/20 02:57:37;;;;;;;12.73;8.45;;;18.10;99.90;;;;;;5014874;28;20091;-59
2023/06/20 03:00:09;;;;;;;12.02;8.50;;;18.10;99.90;;;;;;4996393;28;20053;-58
2023/06/20 03:02:57;;;;;;;14.20;8.13;;;18.10;99.90;;;;;;5013062;28;20402;-58
2023/06/20 03:05:26;;;;;;;13.15;7.75;;;18.10;99.90;;;;;;5017441;28;20034;-59
2023/06/20 03:07:54;;;;;;;13.93;9.10;;;18.10;99.90;;;;;;5019642;28;20041;-58
2023/06/20 03:10:21;;;;;;;13.23;8.85;;;18.10;99.90;;;;;;5019853;28;20060;-59
2023/06/20 03:12:46;;;;;;;11.73;8.23;;;18.10;99.90;;;;;;4997479;28;20079;-58
2023/06/20 03:15:12;;;;;;;11.75;9.02;;;18.10;99.90;;;;;;5012387;28;20073;-58
2023/06/20 03:17:38;;;;;;;12.68;9.60;;;18.10;99.90;;;;;;5014124;28;20551;-59
2023/06/20 03:20:06;;;;;;;15.13;9.55;;;18.10;99.90;;;;;;5013768;28;20148;-59
2023/06/20 03:22:32;;;;;;;17.52;10.15;;;18.10;99.90;;;;;;4979488;28;20038;-58
2023/06/20 03:24:57;;;;;;;15.93;10.32;;;18.10;99.90;;;;;;5010381;28;20544;-59
2023/06/20 03:27:23;;;;;;;13.18;8.88;;;18.10;99.90;;;;;;5010099;28;20046;-58
2023/06/20 03:29:49;;;;;;;14.20;9.30;;;18.10;99.90;;;;;;5013425;28;20112;-57
2023/06/20 03:32:14;;;;;;;13.63;9.88;;;18.10;99.90;;;;;;4999652;28;20045;-56
2023/06/20 03:34:40;;;;;;;15.60;9.50;;;18.10;99.90;;;;;;5015899;28;20477;-58
2023/06/20 03:37:06;;;;;;;11.82;9.02;;;18.00;99.90;;;;;;5000623;28;20118;-57
2023/06/20 03:39:31;;;;;;;16.60;9.00;;;18.00;99.90;;;;;;5010943;28;20103;-58
2023/06/20 03:41:57;;;;;;;14.07;9.27;;;18.00;99.90;;;;;;5015251;28;20030;-59
2023/06/20 03:44:23;;;;;;;14.57;9.85;;;18.00;99.90;;;;;;5010900;28;20033;-59
2023/06/20 03:46:49;;;;;;;12.07;8.20;;;18.00;99.90;;;;;;5016805;28;20038;-56
2023/06/20 03:49:14;;;;;;;13.45;9.27;;;18.00;99.90;;;;;;5013138;28;20034;-58
2023/06/20 03:51:40;;;;;;;13.00;9.30;;;18.00;99.90;;;;;;5010726;28;20497;-58
2023/06/20 03:54:06;;;;;;;11.18;9.30;;;18.00;99.90;;;;;;5013488;28;20075;-59
2023/06/20 03:56:32;;;;;;;12.70;9.38;;;18.00;99.90;;;;;;4974138;28;20140;-57
2023/06/20 03:58:58;;;;;;;15.07;9.73;;;18.10;99.90;;;;;;4992939;28;20037;-56
2023/06/20 04:01:24;;;;;;;13.02;9.15;;;18.10;99.90;;;;;;5014512;28;20529;-58
2023/06/20 04:03:52;;;;;;;13.25;9.82;;;18.10;99.90;;;;;;5013785;28;20049;-59
2023/06/20 04:06:18;;;;;;;11.13;9.30;;;18.10;99.90;;;;;;5010228;28;20565;-57
2023/06/20 04:08:45;;;;;;;15.07;9.40;;;18.10;99.90;;;;;;5013733;28;20045;-59
2023/06/20 04:11:11;;;;;;;11.65;9.55;;;18.10;99.90;;;;;;4995250;28;20091;-58
2023/06/20 04:13:36;;;;;;;15.65;9.82;;;18.10;99.90;;;;;;5015192;28;20049;-58
2023/06/20 04:16:02;;;;;;;14.82;9.82;;;18.10;99.90;;;;;;5013774;28;20567;-56
2023/06/20 04:18:28;;;;;;;15.05;9.80;;;18.10;99.90;;;;;;5010245;28;20078;-58
2023/06/20 04:20:54;;;;;;;14.40;10.57;;;18.10;99.90;;;;;;4982069;28;20409;-59
2023/06/20 04:23:19;;;;;;;14.40;10.50;;;18.20;99.90;;;;;;5015453;28;20150;-59
2023/06/20 04:25:45;;;;;;;12.48;9.55;;;18.20;99.90;;;;;;5021610;28;20060;-58
2023/06/20 04:28:11;;;;;;;13.30;9.70;;;18.20;99.90;;;;;;5021222;28;20448;-58
2023/06/20 04:30:37;;;;;;;14.00;9.73;;;18.30;99.90;;;;;;5020953;28;20037;-57
2023/06/20 04:33:03;;;;;;;12.57;9.48;;;18.30;99.90;;;;;;5020846;28;20044;-58
2023/06/20 04:35:31;;;;;;;12.50;9.77;;;18.30;99.90;;;;;;5003583;28;20451;-59
2023/06/20 04:38:01;;;;;;;16.05;10.05;;;18.40;99.90;;;;;;5017574;28;20116;-56
2023/06/20 04:40:27;;;;;;;15.30;10.40;;;18.40;99.90;;;;;;5010158;28;20045;-59
2023/06/20 04:42:52;;;;;;;13.48;9.45;;;18.40;99.90;;;;;;5020006;28;20394;-58
2023/06/20 04:45:18;;;;;;;13.63;9.52;;;18.40;99.90;;;;;;5015599;28;20071;-58
2023/06/20 04:47:44;;;;;;;13.50;9.70;;;18.50;99.90;;;;;;5015856;28;20474;-58
2023/06/20 04:50:10;;;;;;;12.80;9.50;;;18.50;99.90;;;;;;5012766;28;20513;-58
2023/06/20 04:52:37;;;;;;;12.70;9.48;;;18.50;99.90;;;;;;5015796;28;22011;-57
2023/06/20 04:55:03;;;;;;;11.57;9.07;;;18.50;99.90;;;;;;5015024;28;20073;-57
2023/06/20 04:57:29;;;;;;;13.32;9.70;;;18.60;99.90;;;;;;5013374;28;20045;-59
2023/06/20 04:59:55;;;;;;;15.93;9.57;;;18.60;99.90;;;;;;5016366;28;20060;-57
2023/06/20 05:02:21;;;;;;;11.80;8.90;;;18.60;99.90;;;;;;5005054;28;20041;-59
2023/06/20 05:04:47;;;;;;;14.38;9.50;;;18.60;99.90;;;;;;5018050;28;20742;-57
2023/06/20 05:07:12;;;;;;;12.55;9.35;;;18.60;99.90;;;;;;5012421;28;20478;-58
2023/06/20 05:09:38;;;;;;;13.20;9.02;;;18.60;99.90;;;;;;5016839;28;20030;-59
2023/06/20 05:12:04;;;;;;;10.90;9.05;;;18.60;99.90;;;;;;5017443;28;20048;-59
2023/06/20 05:14:30;;;;;;;12.10;9.05;;;18.60;99.90;;;;;;5013767;28;20083;-57
2023/06/20 05:16:56;;;;;;;14.40;9.05;;;18.70;99.90;;;;;;5013055;28;20057;-57
2023/06/20 05:19:22;;;;;;;14.00;8.15;;;18.70;99.90;;;;;;5011368;28;20042;-58
2023/06/20 05:21:47;;;;;;;13.88;9.52;;;18.70;99.90;;;;;;5017663;28;20052;-59
2023/06/20 05:24:14;;;;;;;12.30;8.70;;;18.80;99.90;;;;;;5010739;28;20449;-58
2023/06/20 05:26:40;;;;;;;14.15;9.05;;;18.80;99.90;;;;;;5000808;28;20042;-56
2023/06/20 05:29:06;;;;;;;12.90;9.48;;;18.80;99.90;;;;;;5014088;28;20048;-56
2023/06/20 05:31:32;;;;;;;13.23;9.57;;;18.90;99.90;;;;;;5016087;28;20398;-57
2023/06/20 05:33:58;;;;;;;13.25;8.98;;;18.90;99.90;;;;;;5013042;28;20074;-58
2023/06/20 05:36:23;;;;;;;13.77;9.68;;;18.90;99.90;;;;;;5008126;28;20029;-57
2023/06/20 05:38:49;;;;;;;13.02;9.15;;;18.90;99.90;;;;;;4994546;28;20091;-55
2023/06/20 05:41:16;;;;;;;14.50;9.32;;;19.00;99.90;;;;;;5011824;28;20073;-58
2023/06/20 05:43:41;;;;;;;11.63;9.05;;;19.00;99.90;;;;;;5022744;28;20065;-57
2023/06/20 05:46:07;;;;;;;14.57;9.35;;;19.10;99.90;;;;;;4994399;28;20805;-58
2023/06/20 05:48:34;;;;;;;14.50;9.18;;;19.10;99.90;;;;;;5016309;28;20405;-58
2023/06/20 05:51:00;;;;;;;12.23;8.75;;;19.10;99.90;;;;;;5013326;28;20041;-58
2023/06/20 05:53:27;;;;;;;13.65;9.00;;;19.10;99.90;;;;;;4997469;28;20042;-59
2023/06/20 05:55:52;;;;;;;12.23;9.05;;;19.10;99.90;;;;;;5013422;28;20564;-58
2023/06/20 05:58:19;;;;;;;13.98;9.55;;;19.20;99.90;;;;;;5009316;28;20096;-58
2023/06/20 06:00:45;;;;;;;15.95;9.30;;;19.20;99.90;;;;;;5017969;28;20084;-59
2023/06/20 06:03:12;;;;;;;14.48;9.48;;;19.20;99.90;;;;;;5019544;28;20069;-57
2023/06/20 06:05:39;;;;;;;12.57;9.15;;;19.30;99.90;;;;;;4999029;28;20145;-58
2023/06/20 06:08:05;;;;;;;12.27;9.15;;;19.30;99.90;;;;;;5000989;28;20045;-57
2023/06/20 06:10:32;;;;;;;11.25;9.32;;;19.30;99.90;;;;;;5012021;28;20133;-58
2023/06/20 06:12:58;;;;;;;12.25;9.27;;;19.30;99.90;;;;;;4996714;28;20037;-58
2023/06/20 06:15:23;;;;;;;13.10;9.70;;;19.30;99.90;;;;;;5009400;28;20048;-58
2023/06/20 06:17:49;;;;;;;14.63;10.23;;;19.40;99.90;;;;;;5010459;28;20375;-58
2023/06/20 06:20:18;;;;;;;14.57;10.15;;;19.40;99.90;;;;;;5014542;28;20406;-58
2023/06/20 06:22:43;;;;;;;15.38;10.18;;;19.40;99.90;;;;;;5020179;28;20064;-58
2023/06/20 06:25:09;;;;;;;15.93;9.95;;;19.40;99.90;;;;;;5020803;28;20033;-58
2023/06/20 06:27:35;;;;;;;16.08;10.85;;;19.40;99.90;;;;;;5016663;28;20057;-58
2023/06/20 06:30:03;;;;;;;16.45;10.50;;;19.40;99.90;;;;;;5018392;28;20053;-58
2023/06/20 06:32:28;;;;;;;14.45;10.00;;;19.40;99.90;;;;;;5018138;28;20474;-59
2023/06/20 06:34:59;;;;;;;13.77;10.38;;;19.40;99.90;;;;;;5021170;28;20048;-58
2023/06/20 06:37:26;;;;;;;17.98;10.82;;;19.50;99.90;;;;;;5017321;28;20084;-59
2023/06/20 06:39:54;;;;;;;16.95;10.77;;;19.50;99.90;;;;;;5016929;28;20042;-55
2023/06/20 06:42:20;;;;;;;14.10;10.27;;;19.60;99.90;;;;;;5009516;28;20057;-56
2023/06/20 06:44:46;;;;;;;12.45;10.43;;;19.60;99.90;;;;;;4995184;28;20587;-56
2023/06/20 06:47:11;;;;;;;15.85;10.07;;;19.70;99.90;;;;;;5004100;28;20042;-57
2023/06/20 06:49:37;;;;;;;18.08;11.38;;;19.70;99.90;;;;;;4993152;28;20041;-58
2023/06/20 06:52:03;;;;;;;16.40;10.65;;;19.90;99.90;;;;;;5018895;28;20038;-59
2023/06/20 06:54:29;;;;;;;15.00;10.40;;;19.90;99.90;;;;;;5013452;28;20045;-56
2023/06/20 06:56:55;;;;;;;15.32;10.77;;;20.00;99.90;;;;;;5014697;28;20056;-57
2023/06/20 06:59:21;;;;;;;16.42;11.30;;;20.10;99.90;;;;;;5011480;28;20061;-55
2023/06/20 07:01:46;;;;;;;14.40;11.05;;;20.10;99.90;;;;;;4979830;28;20410;-58
2023/06/20 07:04:14;;;;;;;15.55;11.20;;;20.20;99.90;;;;;;5015402;28;20029;-56
2023/06/20 07:06:40;;;;;;;14.25;10.85;;;20.30;99.90;;;;;;4993675;28;20055;-55
2023/06/20 07:09:06;;;;;;;16.83;10.43;;;20.40;99.90;;;;;;5006715;28;20033;-58
2023/06/20 07:11:31;;;;;;;13.73;10.98;;;20.50;99.90;;;;;;5000291;28;20088;-57
2023/06/20 07:13:57;;;;;;;14.18;10.40;;;20.60;99.90;;;;;;5015082;28;20045;-57
2023/06/20 07:16:25;;;;;;;17.02;10.75;;;20.70;99.90;;;;;;5010760;28;20493;-58
2023/06/20 07:18:51;;;;;;;16.65;10.93;;;20.80;99.90;;;;;;5007408;28;20049;-58
2023/06/20 07:21:17;;;;;;;16.45;10.65;;;20.90;99.90;;;;;;4994083;28;20057;-55
2023/06/20 07:23:43;;;;;;;15.82;11.00;;;21.00;99.90;;;;;;4997673;28;20048;-56
2023/06/20 07:26:09;;;;;;;15.45;10.85;;;21.10;99.90;;;;;;5017802;28;20493;-56
2023/06/20 07:28:36;;;;;;;13.70;10.48;;;21.20;99.90;;;;;;5012614;28;20060;-59
2023/06/20 07:31:02;;;;;;;19.20;10.65;;;21.20;99.90;;;;;;5011803;28;20111;-58
2023/06/20 07:33:28;;;;;;;14.60;10.82;;;21.20;99.90;;;;;;5005326;28;20057;-57
2023/06/20 07:35:54;;;;;;;15.20;10.73;;;21.30;99.90;;;;;;5007580;28;20050;-58
2023/06/20 07:38:19;;;;;;;14.05;10.63;;;21.30;99.90;;;;;;5014344;28;20529;-56
2023/06/20 07:40:45;;;;;;;19.45;11.18;;;21.30;99.90;;;;;;4978438;28;20406;-58
2023/06/20 07:43:11;;;;;;;14.85;10.38;;;21.30;99.90;;;;;;5012044;28;20675;-58
2023/06/20 07:45:37;;;;;;;14.52;10.55;;;21.40;99.90;;;;;;5008351;28;20508;-56
2023/06/20 07:48:04;;;;;;;16.83;11.13;;;21.40;99.90;;;;;;5014961;28;20164;-58
2023/06/20 07:50:30;;;;;;;15.82;10.45;;;21.40;99.90;;;;;;5011372;28;20073;-58
2023/06/20 07:52:56;;;;;;;15.32;9.90;;;21.60;99.90;;;;;;5009021;28;20037;-58
2023/06/20 07:55:22;;;;;;;13.85;9.98;;;21.70;99.90;;;;;;5010298;28;20438;-58
2023/06/20 07:57:48;;;;;;;12.50;10.48;;;21.80;99.90;;;;;;5008628;28;20103;-58
2023/06/20 08:00:14;;;;;;;15.27;10.23;;;21.90;99.90;;;;;;4999479;28;20042;-57
2023/06/20 08:02:40;;;;;;;13.75;9.90;;;22.10;99.90;;;;;;5008271;28;20044;-56
2023/06/20 08:05:08;;;;;;;14.73;10.57;;;22.20;99.90;;;;;;4950751;28;20038;-59
2023/06/20 08:07:37;;;;;;;14.93;9.90;;;22.30;99.90;;;;;;5003273;28;20072;-57
2023/06/20 08:10:04;;;;;;;17.83;10.40;;;22.40;99.90;;;;;;4996836;28;20037;-59
2023/06/20 08:12:30;;;;;;;15.90;10.60;;;22.60;99.90;;;;;;5007120;28;20046;-59
2023/06/20 08:14:56;;;;;;;14.55;10.02;;;22.70;99.90;;;;;;4992389;28;20131;-59
2023/06/20 08:17:22;;;;;;;16.20;9.60;;;22.80;99.90;;;;;;4988793;28;20061;-57
2023/06/20 08:19:47;;;;;;;11.02;9.68;;;23.00;99.90;;;;;;5007602;28;20103;-56
2023/06/20 08:22:13;;;;;;;16.42;10.38;;;23.10;99.90;;;;;;5007295;28;20457;-59
2023/06/20 08:24:39;;;;;;;11.50;9.50;;;23.20;99.90;;;;;;5008662;28;20048;-60
2023/06/20 08:27:05;;;;;;;12.25;9.77;;;23.40;99.90;;;;;;5013526;28;20132;-59
2023/06/20 08:29:30;;;;;;;13.38;10.43;;;23.50;99.90;;;;;;5009939;28;20057;-59
2023/06/20 08:31:56;;;;;;;11.25;9.68;;;23.70;99.90;;;;;;5004973;28;20044;-59
2023/06/20 08:34:22;;;;;;;13.95;9.50;;;23.80;99.90;;;;;;4992906;28;20041;-58
2023/06/20 08:36:48;;;;;;;12.27;9.10;;;23.80;99.90;;;;;;5003407;28;20120;-58
2023/06/20 08:39:13;;;;;;;13.52;9.48;;;23.80;99.90;;;;;;5006507;28;20103;-56
2023/06/20 08:41:39;;;;;;;12.68;8.90;;;23.90;99.90;;;;;;5010022;28;20045;-57
2023/06/20 08:44:05;;;;;;;14.15;9.43;;;23.90;99.90;;;;;;5009599;28;20041;-57
2023/06/20 08:46:31;;;;;;;10.35;8.98;;;24.00;99.90;;;;;;5003151;28;20071;-58
2023/06/20 08:48:57;;;;;;;13.38;9.23;;;24.10;99.90;;;;;;4987064;28;20037;-58
2023/06/20 08:51:26;;;;;;;10.43;8.88;;;24.20;99.90;;;;;;5005854;28;20254;-56
2023/06/20 08:53:54;;;;;;;12.38;9.30;;;24.30;99.90;;;;;;4977255;28;20045;-59
2023/06/20 08:56:20;;;;;;;12.48;9.45;;;24.30;99.90;;;;;;5009795;28;20664;-59
2023/06/20 08:58:46;;;;;;;12.27;9.48;;;24.40;99.90;;;;;;4992634;28;20050;-58
2023/06/20 09:01:12;;;;;;;12.00;9.30;;;24.40;99.90;;;;;;5006079;28;20037;-58
2023/06/20 09:03:38;;;;;;;11.93;9.07;;;24.30;99.90;;;;;;5005574;28;20048;-58
2023/06/20 09:06:06;;;;;;;11.43;9.30;;;24.30;99.90;;;;;;4980000;28;20183;-59
2023/06/20 09:08:39;;;;;;;14.02;9.35;;;24.30;99.90;;;;;;5005591;28;20041;-59
2023/06/20 09:11:12;;;;;;;11.57;8.73;;;24.30;99.90;;;;;;5007316;28;20037;-58
2023/06/20 09:13:40;;;;;;;15.82;8.48;;;24.20;99.90;;;;;;4993487;28;20167;-57
2023/06/20 09:16:10;;;;;;;12.32;8.65;;;24.20;99.90;;;;;;5010365;28;20053;-58
2023/06/20 09:18:40;;;;;;;10.82;7.88;;;24.30;99.90;;;;;;5014000;28;20125;-59
2023/06/20 09:21:13;;;;;;;10.82;8.35;;;24.40;99.90;;;;;;5015536;28;20049;-58
2023/06/20 09:23:39;;;;;;;12.77;8.25;;;24.60;99.90;;;;;;5015720;28;20038;-57
2023/06/20 09:26:18;;;;;;;14.52;8.55;;;24.80;99.90;;;;;;5013697;28;20527;-58
2023/06/20 09:28:44;;;;;;;10.27;8.38;;;24.90;99.60;;;;;;5014274;28;20455;-59
2023/06/20 09:31:10;;;;;;;13.15;9.43;;;25.00;99.50;;;;;;4998470;28;20045;-56
2023/06/20 09:33:37;;;;;;;9.73;8.55;;;25.10;99.10;;;;;;5013833;28;22096;-54
2023/06/20 09:36:17;;;;;;;10.07;8.25;;;25.20;99.10;;;;;;5012380;28;20077;-57
2023/06/20 09:38:52;;;;;;;10.63;8.40;;;25.30;99.00;;;;;;5002380;28;20079;-59
2023/06/20 09:41:18;;;;;;;11.40;8.30;;;25.40;98.70;;;;;;5014175;28;20076;-59
2023/06/20 09:43:44;;;;;;;10.32;8.35;;;25.40;98.60;;;;;;5012707;28;20046;-56
2023/06/20 09:46:10;;;;;;;10.13;8.32;;;25.40;98.60;;;;;;5009521;28;20395;-59
2023/06/20 09:48:37;;;;;;;10.88;7.78;;;25.50;98.60;;;;;;5007649;28;20041;-58
2023/06/20 09:51:03;;;;;;;11.15;6.88;;;25.60;98.40;;;;;;5004255;28;20040;-58
2023/06/20 09:53:44;;;;;;;8.95;7.40;;;25.90;98.00;;;;;;5004794;28;20505;-57
2023/06/20 09:56:11;;;;;;;11.68;7.00;;;26.20;97.90;;;;;;5006256;28;20168;-59
2023/06/20 09:58:42;;;;;;;12.23;6.90;;;26.70;97.50;;;;;;5008939;28;20083;-59
2023/06/20 10:01:14;;;;;;;13.77;7.77;;;27.10;97.10;;;;;;4991241;28;20060;-59
2023/06/20 10:03:41;;;;;;;10.98;7.75;;;27.40;96.10;;;;;;5007171;28;20042;-57
2023/06/20 10:06:07;;;;;;;9.70;7.50;;;27.60;95.40;;;;;;4999854;28;20371;-58
2023/06/20 10:08:33;;;;;;;14.23;7.60;;;27.70;94.80;;;;;;5009709;28;20087;-58
2023/06/20 10:10:59;;;;;;;7.55;6.78;;;27.90;94.40;;;;;;5005335;28;21978;-58
2023/06/20 10:13:26;;;;;;;8.77;7.20;;;28.00;93.60;;;;;;4973983;28;20048;-57
2023/06/20 10:15:52;;;;;;;9.43;6.82;;;28.20;93.60;;;;;;4991316;28;20041;-59
2023/06/20 10:18:30;;;;;;;9.98;5.97;;;28.30;92.40;;;;;;5006338;28;20053;-60
2023/06/20 10:20:56;;;;;;;9.85;5.40;;;28.30;91.90;;;;;;5004919;28;20046;-58
2023/06/20 10:23:30;;;;;;;10.40;6.95;;;28.40;92.30;;;;;;5008969;28;20026;-59
2023/06/20 10:25:58;;;;;;;8.95;7.15;;;28.50;91.60;;;;;;5005843;28;20386;-60
2023/06/20 10:28:25;;;;;;;11.32;6.97;;;28.60;90.90;;;;;;5011872;28;20057;-59
2023/06/20 10:30:50;;;;;;;12.30;7.93;;;28.60;91.10;;;;;;5006999;28;20076;-59
2023/06/20 10:33:31;;;;;;;10.02;6.85;;;28.80;91.10;;;;;;5003512;28;20072;-57
2023/06/20 10:36:08;;;;;;;8.98;6.93;;;28.90;90.70;;;;;;5006634;28;20062;-57
2023/06/20 10:38:40;;;;;;;13.95;7.60;;;29.10;90.50;;;;;;5000537;28;20042;-59
2023/06/20 10:41:28;;;;;;;8.23;7.35;;;29.20;89.90;;;;;;5008334;28;20042;-59
2023/06/20 10:43:58;;;;;;;10.50;7.80;;;29.20;89.30;;;;;;5008147;28;20529;-58
2023/06/20 10:46:47;;;;;;;10.98;7.05;;;29.30;87.80;;;;;;5013576;28;20057;-58
2023/06/20 10:49:13;;;;;;;9.40;6.90;;;29.30;88.50;;;;;;5003464;28;20045;-58
2023/06/20 10:51:46;;;;;;;12.50;6.93;;;29.40;87.20;;;;;;5004867;28;20059;-58
2023/06/20 10:54:14;;;;;;;10.30;6.80;;;29.50;86.90;;;;;;4999998;28;20048;-57
2023/06/20 10:56:40;;;;;;;7.43;6.25;;;29.50;85.90;;;;;;4998004;28;20104;-58
2023/06/20 10:59:18;;;;;;;8.13;5.78;;;29.50;85.30;;;;;;5000999;28;20034;-59
2023/06/20 11:01:44;;;;;;;10.30;5.40;;;29.60;85.40;;;;;;5008561;28;20426;-60
2023/06/20 11:04:15;;;;;;;7.57;4.68;;;29.70;84.30;;;;;;5007316;28;20131;-56
2023/06/20 11:06:41;;;;;;;7.72;5.72;;;29.90;84.60;;;;;;5007656;28;20037;-59
2023/06/20 11:09:22;;;;;;;7.63;5.35;;;30.20;83.40;;;;;;5012142;28;20123;-59
2023/06/20 11:11:49;;;;;;;7.20;5.90;;;30.30;81.70;;;;;;4997665;28;20382;-59
2023/06/20 11:14:24;;;;;;;9.77;5.60;;;30.30;80.20;;;;;;4997136;28;20140;-55
2023/06/20 11:16:53;;;;;;;6.68;5.75;;;30.30;79.80;;;;;;4998566;28;20062;-60
2023/06/20 11:19:23;;;;;;;6.30;5.70;;;30.40;79.00;;;;;;5000535;28;20038;-58
2023/06/20 11:21:49;;;;;;;6.95;4.97;;;30.40;77.90;;;;;;5007364;28;20048;-59
2023/06/20 11:24:14;;;;;;;5.97;5.38;;;30.50;78.00;;;;;;5011115;28;20042;-58
2023/06/20 11:26:40;;;;;;;6.75;6.05;;;30.70;78.10;;;;;;5013435;28;20050;-60
2023/06/20 11:29:06;;;;;;;6.22;5.10;;;30.80;77.80;;;;;;5014098;28;20060;-60
2023/06/20 11:31:32;;;;;;;8.07;5.70;;;30.90;77.80;;;;;;4995073;28;20090;-59
2023/06/20 11:34:05;;;;;;;6.88;5.47;;;31.10;77.30;;;;;;5009615;28;20099;-59
2023/06/20 11:36:36;;;;;;;6.35;5.20;;;31.30;76.00;;;;;;5011310;28;20053;-58
2023/06/20 11:39:12;;;;;;;5.80;5.03;;;31.30;75.20;;;;;;5007498;28;20413;-55
2023/06/20 11:41:39;;;;;;;10.15;5.10;;;31.40;75.10;;;;;;4983798;28;20095;-58
2023/06/20 11:44:20;;;;;;;6.28;4.80;;;31.40;75.00;;;;;;5010764;28;20382;-54
2023/06/20 11:46:46;;;;;;;5.40;4.78;;;31.50;74.20;;;;;;5010067;28;20045;-55
2023/06/20 11:49:11;;;;;;;7.15;4.93;;;31.60;74.20;;;;;;4983666;28;20037;-57
2023/06/20 11:51:38;;;;;;;6.53;4.88;;;31.80;73.60;;;;;;4991707;28;20186;-57
2023/06/20 11:54:12;;;;;;;6.55;5.72;;;31.80;72.70;;;;;;4999332;28;20041;-58
2023/06/20 11:56:42;;;;;;;7.97;5.72;;;31.80;71.60;;;;;;4989479;28;20067;-55
2023/06/20 11:59:08;;;;;;;6.78;5.35;;;31.70;71.90;;;;;;5004337;28;20076;-58
2023/06/20 12:01:34;;;;;;;6.10;5.07;;;31.70;72.10;;;;;;4996923;28;20045;-56
2023/06/20 12:04:08;;;;;;;6.00;5.38;;;31.80;72.70;;;;;;5001911;28;20048;-57
2023/06/20 12:06:39;;;;;;;6.18;5.07;;;32.00;71.70;;;;;;5002524;28;20080;-56
2023/06/20 12:09:10;;;;;;;6.63;4.93;;;32.00;71.30;;;;;;5003368;28;20376;-55
2023/06/20 12:11:57;;;;;;;6.78;5.35;;;32.10;70.50;;;;;;5006567;28;20052;-56
2023/06/20 12:14:24;;;;;;;5.32;4.93;;;32.20;70.60;;;;;;5004289;28;20378;-58
2023/06/20 12:16:51;;;;;;;7.82;5.30;;;32.10;69.20;;;;;;5002723;28;20041;-58
2023/06/20 12:19:19;;;;;;;7.93;5.47;;;32.00;68.80;;;;;;4995587;28;20046;-58
2023/06/20 12:21:45;;;;;;;7.95;4.50;;;32.10;69.10;;;;;;4991107;28;20725;-58
2023/06/20 12:24:11;;;;;;;5.80;4.88;;;32.20;69.30;;;;;;5005651;28;20042;-58
2023/06/20 12:26:38;;;;;;;7.32;5.72;;;32.20;69.00;;;;;;5009370;28;20750;-58
2023/06/20 12:29:04;;;;;;;7.22;5.30;;;32.00;69.00;;;;;;5006252;28;20494;-58
2023/06/20 12:31:31;;;;;;;5.75;5.25;;;31.80;69.40;;;;;;5004462;28;20410;-58
2023/06/20 12:33:57;;;;;;;8.65;5.15;;;31.60;69.20;;;;;;5003892;28;20386;-57
2023/06/20 12:36:23;;;;;;;6.88;5.20;;;31.40;68.90;;;;;;5009890;28;20115;-55
2023/06/20 12:38:49;;;;;;;9.02;4.80;;;31.30;68.70;;;;;;5007531;28;20478;-58
2023/06/20 12:41:16;;;;;;;6.63;5.28;;;31.10;69.10;;;;;;4990593;28;20199;-57